sensor_id;sensor_type;location;lat;lon;timestamp;temperature;humidity
14985;DHT22;7588;62.368;25.902;2023-05-07T00:00:00;-0.80;99.90
14985;DHT22;7588;62.368;25.902;2023-05-07T00:02:26;-0.60;99.90
14985;DHT22;7588;62.368;25.902;2023-05-07T00:04:52;-0.60;99.90
14985;DHT22;7588;62.368;25.902;2023-05-07T00:07:18;-0.50;99.90
14985;DHT22;7588;62.368;25.902;2023-05-07T00:09:44;-0.50;99.90
14985;DHT22;7588;62.368;25.902;2023-05-07T00:12:09;-0.40;99.90
14985;DHT22;7588;62.368;25.902;2023-05-07T00:14:35;-0.40;99.90
14985;DHT22;7588;62.368;25.902;2023-05-07T00:17:01;-0.40;99.90
14985;DHT22;7588;62.368;25.902;2023-05-07T00:19:27;-0.50;99.90
14985;DHT22;7588;62.368;25.902;2023-05-07T00:21:52;-0.50;99.90
14985;DHT22;7588;62.368;25.902;2023-05-07T00:24:19;-0.60;99.90
14985;DHT22;7588;62.368;25.902;2023-05-07T00:26:45;-0.50;99.90
14985;DHT22;7588;62.368;25.902;2023-05-07T00:29:10;-0.50;99.90
14985;DHT22;7588;62.368;25.902;2023-05-07T00:31:36;-0.60;99.90
14985;DHT22;7588;62.368;25.902;2023-05-07T00:34:02;-0.60;99.90
14985;DHT22;7588;62.368;25.902;2023-05-07T00:36:27;-0.70;99.90
14985;DHT22;7588;62.368;25.902;2023-05-07T00:38:56;-0.80;99.90
14985;DHT22;7588;62.368;25.902;2023-05-07T00:41:22;-0.70;99.90
14985;DHT22;7588;62.368;25.902;2023-05-07T00:43:48;-0.60;99.90
14985;DHT22;7588;62.368;25.902;2023-05-07T00:46:13;-0.70;99.90
14985;DHT22;7588;62.368;25.902;2023-05-07T00:48:41;-0.80;99.90
14985;DHT22;7588;62.368;25.902;2023-05-07T00:51:07;-0.90;99.90
14985;DHT22;7588;62.368;25.902;2023-05-07T00:53:32;-0.90;99.90
14985;DHT22;7588;62.368;25.902;2023-05-07T00:55:58;-0.80;99.90
14985;DHT22;7588;62.368;25.902;2023-05-07T00:58:26;-0.90;99.90
14985;DHT22;7588;62.368;25.902;2023-05-07T01:00:52;-0.80;99.90
14985;DHT22;7588;62.368;25.902;2023-05-07T01:03:17;-1.00;99.90
14985;DHT22;7588;62.368;25.902;2023-05-07T01:05:44;-1.00;99.90
14985;DHT22;7588;62.368;25.902;2023-05-07T01:08:11;-1.10;99.90
14985;DHT22;7588;62.368;25.902;2023-05-07T01:10:37;-1.30;99.90
14985;DHT22;7588;62.368;25.902;2023-05-07T01:13:04;-1.30;99.90
14985;DHT22;7588;62.368;25.902;2023-05-07T01:15:30;-1.30;99.90
14985;DHT22;7588;62.368;25.902;2023-05-07T01:17:56;-1.30;99.90
14985;DHT22;7588;62.368;25.902;2023-05-07T01:20:22;-1.50;99.90
14985;DHT22;7588;62.368;25.902;2023-05-07T01:22:49;-1.60;99.90
14985;DHT22;7588;62.368;25.902;2023-05-07T01:25:15;-1.70;99.90
14985;DHT22;7588;62.368;25.902;2023-05-07T01:27:41;-1.70;99.90
14985;DHT22;7588;62.368;25.902;2023-05-07T01:30:07;-1.50;99.90
14985;DHT22;7588;62.368;25.902;2023-05-07T01:35:07;-1.50;99.90
14985;DHT22;7588;62.368;25.902;2023-05-07T01:37:33;-1.60;99.90
14985;DHT22;7588;62.368;25.902;2023-05-07T01:39:59;-1.70;99.90
14985;DHT22;7588;62.368;25.902;2023-05-07T01:42:26;-1.70;99.90
14985;DHT22;7588;62.368;25.902;2023-05-07T01:44:52;-1.70;99.90
14985;DHT22;7588;62.368;25.902;2023-05-07T01:47:18;-1.80;99.90
14985;DHT22;7588;62.368;25.902;2023-05-07T01:49:44;-1.70;99.90
14985;DHT22;7588;62.368;25.902;2023-05-07T01:52:10;-1.60;99.90
14985;DHT22;7588;62.368;25.902;2023-05-07T01:54:37;-1.40;99.90
14985;DHT22;7588;62.368;25.902;2023-05-07T01:57:03;-1.30;99.90
14985;DHT22;7588;62.368;25.902;2023-05-07T01:59:28;-1.30;99.90
14985;DHT22;7588;62.368;25.902;2023-05-07T02:01:54;-1.30;99.90
14985;DHT22;7588;62.368;25.902;2023-05-07T02:04:20;-1.20;99.90
14985;DHT22;7588;62.368;25.902;2023-05-07T02:06:45;-1.20;99.90
14985;DHT22;7588;62.368;25.902;2023-05-07T02:09:11;-1.20;99.90
14985;DHT22;7588;62.368;25.902;2023-05-07T02:11:37;-1.20;99.90
14985;DHT22;7588;62.368;25.902;2023-05-07T02:14:03;-1.20;99.90
14985;DHT22;7588;62.368;25.902;2023-05-07T02:16:28;-1.10;99.90
14985;DHT22;7588;62.368;25.902;2023-05-07T02:18:54;-1.00;99.90
14985;DHT22;7588;62.368;25.902;2023-05-07T02:21:20;-0.90;99.90
14985;DHT22;7588;62.368;25.902;2023-05-07T02:23:45;-1.00;99.90
14985;DHT22;7588;62.368;25.902;2023-05-07T02:26:11;-0.90;99.90
14985;DHT22;7588;62.368;25.902;2023-05-07T02:28:37;-0.80;99.90
14985;DHT22;7588;62.368;25.902;2023-05-07T02:31:05;-0.70;99.90
14985;DHT22;7588;62.368;25.902;2023-05-07T02:33:31;-0.70;99.90
14985;DHT22;7588;62.368;25.902;2023-05-07T02:36:05;-0.60;99.90
14985;DHT22;7588;62.368;25.902;2023-05-07T02:38:31;-0.50;99.90
14985;DHT22;7588;62.368;25.902;2023-05-07T02:40:56;-0.50;99.90
14985;DHT22;7588;62.368;25.902;2023-05-07T02:43:22;-0.50;99.90
14985;DHT22;7588;62.368;25.902;2023-05-07T02:45:48;-0.40;99.90
14985;DHT22;7588;62.368;25.902;2023-05-07T02:48:13;-0.30;99.90
14985;DHT22;7588;62.368;25.902;2023-05-07T02:50:39;-0.20;99.90
14985;DHT22;7588;62.368;25.902;2023-05-07T02:53:04;-0.20;99.90
14985;DHT22;7588;62.368;25.902;2023-05-07T02:55:30;-0.20;99.90
14985;DHT22;7588;62.368;25.902;2023-05-07T02:57:56;-0.20;99.90
14985;DHT22;7588;62.368;25.902;2023-05-07T03:00:22;-0.20;99.90
14985;DHT22;7588;62.368;25.902;2023-05-07T03:02:48;-0.10;99.90
14985;DHT22;7588;62.368;25.902;2023-05-07T03:05:13;0.00;99.90
14985;DHT22;7588;62.368;25.902;2023-05-07T03:07:39;0.00;99.90
14985;DHT22;7588;62.368;25.902;2023-05-07T03:10:06;0.10;99.90
14985;DHT22;7588;62.368;25.902;2023-05-07T03:12:32;0.20;99.90
14985;DHT22;7588;62.368;25.902;2023-05-07T03:14:58;0.40;99.90
14985;DHT22;7588;62.368;25.902;2023-05-07T03:17:23;0.50;99.90
14985;DHT22;7588;62.368;25.902;2023-05-07T03:19:49;0.50;99.90
14985;DHT22;7588;62.368;25.902;2023-05-07T03:22:15;0.50;99.90
14985;DHT22;7588;62.368;25.902;2023-05-07T03:24:41;0.60;99.90
14985;DHT22;7588;62.368;25.902;2023-05-07T03:27:06;0.70;99.90
14985;DHT22;7588;62.368;25.902;2023-05-07T03:29:32;0.80;99.90
14985;DHT22;7588;62.368;25.902;2023-05-07T03:31:58;0.90;99.90
14985;DHT22;7588;62.368;25.902;2023-05-07T03:34:23;0.90;99.90
14985;DHT22;7588;62.368;25.902;2023-05-07T03:36:49;1.00;99.90
14985;DHT22;7588;62.368;25.902;2023-05-07T03:39:15;1.10;99.90
14985;DHT22;7588;62.368;25.902;2023-05-07T03:41:41;1.10;99.90
14985;DHT22;7588;62.368;25.902;2023-05-07T03:44:06;1.20;99.90
14985;DHT22;7588;62.368;25.902;2023-05-07T03:46:33;1.30;99.90
14985;DHT22;7588;62.368;25.902;2023-05-07T03:48:59;1.30;99.90
14985;DHT22;7588;62.368;25.902;2023-05-07T03:51:25;1.30;99.90
14985;DHT22;7588;62.368;25.902;2023-05-07T03:53:51;1.50;99.90
14985;DHT22;7588;62.368;25.902;2023-05-07T03:56:19;1.50;99.90
14985;DHT22;7588;62.368;25.902;2023-05-07T03:58:47;1.80;99.90
14985;DHT22;7588;62.368;25.902;2023-05-07T04:01:13;2.00;99.90
14985;DHT22;7588;62.368;25.902;2023-05-07T04:03:38;2.20;99.90
14985;DHT22;7588;62.368;25.902;2023-05-07T04:06:04;2.70;99.90
14985;DHT22;7588;62.368;25.902;2023-05-07T04:08:30;3.10;99.50
14985;DHT22;7588;62.368;25.902;2023-05-07T04:10:56;3.40;98.40
14985;DHT22;7588;62.368;25.902;2023-05-07T04:13:22;3.50;97.60
14985;DHT22;7588;62.368;25.902;2023-05-07T04:15:48;4.00;97.20
14985;DHT22;7588;62.368;25.902;2023-05-07T04:18:14;4.30;96.40
14985;DHT22;7588;62.368;25.902;2023-05-07T04:20:41;4.70;95.70
14985;DHT22;7588;62.368;25.902;2023-05-07T04:23:07;5.00;95.20
14985;DHT22;7588;62.368;25.902;2023-05-07T04:25:33;5.40;92.60
14985;DHT22;7588;62.368;25.902;2023-05-07T04:27:59;5.70;93.20
14985;DHT22;7588;62.368;25.902;2023-05-07T04:30:25;6.30;91.40
14985;DHT22;7588;62.368;25.902;2023-05-07T04:32:51;6.60;89.90
14985;DHT22;7588;62.368;25.902;2023-05-07T04:35:17;7.00;84.90
14985;DHT22;7588;62.368;25.902;2023-05-07T04:37:43;7.10;81.60
14985;DHT22;7588;62.368;25.902;2023-05-07T04:40:09;7.60;82.10
14985;DHT22;7588;62.368;25.902;2023-05-07T04:42:35;7.80;80.20
14985;DHT22;7588;62.368;25.902;2023-05-07T04:45:02;8.70;74.70
14985;DHT22;7588;62.368;25.902;2023-05-07T04:47:28;8.50;74.80
14985;DHT22;7588;62.368;25.902;2023-05-07T04:49:53;8.60;73.40
14985;DHT22;7588;62.368;25.902;2023-05-07T04:52:19;8.90;71.20
14985;DHT22;7588;62.368;25.902;2023-05-07T04:54:45;8.90;70.30
14985;DHT22;7588;62.368;25.902;2023-05-07T04:57:11;9.40;68.30
14985;DHT22;7588;62.368;25.902;2023-05-07T04:59:37;9.60;66.80
14985;DHT22;7588;62.368;25.902;2023-05-07T05:02:02;10.30;64.70
14985;DHT22;7588;62.368;25.902;2023-05-07T05:04:30;10.10;64.90
14985;DHT22;7588;62.368;25.902;2023-05-07T05:06:56;10.80;62.20
14985;DHT22;7588;62.368;25.902;2023-05-07T05:09:22;11.50;57.80
14985;DHT22;7588;62.368;25.902;2023-05-07T05:11:47;11.30;57.20
14985;DHT22;7588;62.368;25.902;2023-05-07T05:14:13;11.10;58.00
14985;DHT22;7588;62.368;25.902;2023-05-07T05:16:39;10.20;60.00
14985;DHT22;7588;62.368;25.902;2023-05-07T05:19:04;9.70;59.80
14985;DHT22;7588;62.368;25.902;2023-05-07T05:21:31;9.80;61.40
14985;DHT22;7588;62.368;25.902;2023-05-07T05:23:57;9.70;58.60
14985;DHT22;7588;62.368;25.902;2023-05-07T05:26:23;10.60;57.30
14985;DHT22;7588;62.368;25.902;2023-05-07T05:28:49;11.20;56.00
14985;DHT22;7588;62.368;25.902;2023-05-07T05:31:16;11.20;56.80
14985;DHT22;7588;62.368;25.902;2023-05-07T05:33:41;10.10;56.80
14985;DHT22;7588;62.368;25.902;2023-05-07T05:36:09;10.00;60.50
14985;DHT22;7588;62.368;25.902;2023-05-07T05:38:35;10.00;60.00
14985;DHT22;7588;62.368;25.902;2023-05-07T05:41:01;10.10;58.10
14985;DHT22;7588;62.368;25.902;2023-05-07T05:43:27;10.30;59.20
14985;DHT22;7588;62.368;25.902;2023-05-07T05:45:52;10.70;58.70
14985;DHT22;7588;62.368;25.902;2023-05-07T05:48:18;10.70;62.00
14985;DHT22;7588;62.368;25.902;2023-05-07T05:50:44;10.70;60.90
14985;DHT22;7588;62.368;25.902;2023-05-07T05:53:10;10.30;59.80
14985;DHT22;7588;62.368;25.902;2023-05-07T05:55:35;10.10;57.60
14985;DHT22;7588;62.368;25.902;2023-05-07T05:58:01;10.00;58.40
14985;DHT22;7588;62.368;25.902;2023-05-07T06:00:27;9.40;61.10
14985;DHT22;7588;62.368;25.902;2023-05-07T06:02:53;9.40;61.20
14985;DHT22;7588;62.368;25.902;2023-05-07T06:05:19;9.10;60.70
14985;DHT22;7588;62.368;25.902;2023-05-07T06:07:45;8.70;66.10
14985;DHT22;7588;62.368;25.902;2023-05-07T06:10:10;8.40;66.90
14985;DHT22;7588;62.368;25.902;2023-05-07T06:12:36;8.40;65.20
14985;DHT22;7588;62.368;25.902;2023-05-07T06:15:04;8.20;63.70
14985;DHT22;7588;62.368;25.902;2023-05-07T06:17:29;7.90;67.90
14985;DHT22;7588;62.368;25.902;2023-05-07T06:19:55;7.90;63.10
14985;DHT22;7588;62.368;25.902;2023-05-07T06:22:21;8.00;65.60
14985;DHT22;7588;62.368;25.902;2023-05-07T06:24:47;8.00;62.90
14985;DHT22;7588;62.368;25.902;2023-05-07T06:27:12;8.10;63.50
14985;DHT22;7588;62.368;25.902;2023-05-07T06:29:38;8.10;62.10
14985;DHT22;7588;62.368;25.902;2023-05-07T06:32:12;8.30;63.40
14985;DHT22;7588;62.368;25.902;2023-05-07T06:34:38;8.90;59.90
14985;DHT22;7588;62.368;25.902;2023-05-07T06:37:05;10.10;55.80
14985;DHT22;7588;62.368;25.902;2023-05-07T06:39:30;10.70;53.10
14985;DHT22;7588;62.368;25.902;2023-05-07T06:41:57;10.70;55.60
14985;DHT22;7588;62.368;25.902;2023-05-07T06:44:22;10.80;54.30
14985;DHT22;7588;62.368;25.902;2023-05-07T06:46:48;10.50;53.80
14985;DHT22;7588;62.368;25.902;2023-05-07T06:49:14;10.60;55.10
14985;DHT22;7588;62.368;25.902;2023-05-07T06:51:40;10.90;53.70
14985;DHT22;7588;62.368;25.902;2023-05-07T06:54:06;11.40;54.30
14985;DHT22;7588;62.368;25.902;2023-05-07T06:56:33;11.20;56.50
14985;DHT22;7588;62.368;25.902;2023-05-07T06:59:00;11.10;53.60
14985;DHT22;7588;62.368;25.902;2023-05-07T07:01:26;10.70;55.50
14985;DHT22;7588;62.368;25.902;2023-05-07T07:03:52;10.90;54.70
14985;DHT22;7588;62.368;25.902;2023-05-07T07:06:17;11.30;53.90
14985;DHT22;7588;62.368;25.902;2023-05-07T07:08:43;11.70;53.10
14985;DHT22;7588;62.368;25.902;2023-05-07T07:11:09;12.10;52.60
14985;DHT22;7588;62.368;25.902;2023-05-07T07:13:35;12.20;53.60
14985;DHT22;7588;62.368;25.902;2023-05-07T07:16:01;11.70;53.60
14985;DHT22;7588;62.368;25.902;2023-05-07T07:18:27;11.40;58.60
14985;DHT22;7588;62.368;25.902;2023-05-07T07:20:53;11.50;56.40
14985;DHT22;7588;62.368;25.902;2023-05-07T07:23:19;11.70;54.00
14985;DHT22;7588;62.368;25.902;2023-05-07T07:25:44;12.00;55.80
14985;DHT22;7588;62.368;25.902;2023-05-07T07:28:10;12.10;55.90
14985;DHT22;7588;62.368;25.902;2023-05-07T07:30:36;11.70;57.00
14985;DHT22;7588;62.368;25.902;2023-05-07T07:33:02;11.60;54.10
14985;DHT22;7588;62.368;25.902;2023-05-07T07:35:37;11.40;57.20
14985;DHT22;7588;62.368;25.902;2023-05-07T07:38:03;11.00;54.70
14985;DHT22;7588;62.368;25.902;2023-05-07T07:40:29;10.90;56.90
14985;DHT22;7588;62.368;25.902;2023-05-07T07:42:56;11.30;55.00
14985;DHT22;7588;62.368;25.902;2023-05-07T07:45:22;11.50;54.50
14985;DHT22;7588;62.368;25.902;2023-05-07T07:47:47;11.40;57.40
14985;DHT22;7588;62.368;25.902;2023-05-07T07:50:13;11.20;55.00
14985;DHT22;7588;62.368;25.902;2023-05-07T07:52:39;11.00;56.50
14985;DHT22;7588;62.368;25.902;2023-05-07T07:55:05;11.00;56.70
14985;DHT22;7588;62.368;25.902;2023-05-07T07:57:31;11.10;56.40
14985;DHT22;7588;62.368;25.902;2023-05-07T07:59:57;11.00;57.60
14985;DHT22;7588;62.368;25.902;2023-05-07T08:02:22;10.80;54.20
14985;DHT22;7588;62.368;25.902;2023-05-07T08:04:48;10.70;58.70
14985;DHT22;7588;62.368;25.902;2023-05-07T08:07:14;11.00;55.90
14985;DHT22;7588;62.368;25.902;2023-05-07T08:09:40;10.90;54.90
14985;DHT22;7588;62.368;25.902;2023-05-07T08:12:06;11.00;54.60
14985;DHT22;7588;62.368;25.902;2023-05-07T08:14:33;11.20;56.40
14985;DHT22;7588;62.368;25.902;2023-05-07T08:16:59;11.60;57.30
14985;DHT22;7588;62.368;25.902;2023-05-07T08:19:25;11.90;54.60
14985;DHT22;7588;62.368;25.902;2023-05-07T08:21:50;12.00;56.70
14985;DHT22;7588;62.368;25.902;2023-05-07T08:24:16;12.30;53.40
14985;DHT22;7588;62.368;25.902;2023-05-07T08:26:43;12.10;54.10
14985;DHT22;7588;62.368;25.902;2023-05-07T08:29:09;11.90;54.90
14985;DHT22;7588;62.368;25.902;2023-05-07T08:31:35;12.10;55.40
14985;DHT22;7588;62.368;25.902;2023-05-07T08:34:01;12.00;54.60
14985;DHT22;7588;62.368;25.902;2023-05-07T08:36:26;11.90;52.10
14985;DHT22;7588;62.368;25.902;2023-05-07T08:38:54;12.00;55.60
14985;DHT22;7588;62.368;25.902;2023-05-07T08:41:20;12.10;52.50
14985;DHT22;7588;62.368;25.902;2023-05-07T08:43:48;12.20;53.50
14985;DHT22;7588;62.368;25.902;2023-05-07T08:46:18;12.00;56.10
14985;DHT22;7588;62.368;25.902;2023-05-07T08:48:45;12.00;52.50
14985;DHT22;7588;62.368;25.902;2023-05-07T08:51:15;12.20;51.10
14985;DHT22;7588;62.368;25.902;2023-05-07T08:53:41;12.70;50.80
14985;DHT22;7588;62.368;25.902;2023-05-07T08:56:08;12.80;49.30
14985;DHT22;7588;62.368;25.902;2023-05-07T08:58:35;12.40;49.60
14985;DHT22;7588;62.368;25.902;2023-05-07T09:01:05;12.50;52.00
14985;DHT22;7588;62.368;25.902;2023-05-07T09:03:32;12.60;49.30
14985;DHT22;7588;62.368;25.902;2023-05-07T09:05:58;12.60;49.70
14985;DHT22;7588;62.368;25.902;2023-05-07T09:08:28;12.40;48.60
14985;DHT22;7588;62.368;25.902;2023-05-07T09:10:53;12.30;49.60
14985;DHT22;7588;62.368;25.902;2023-05-07T09:13:20;12.50;51.00
14985;DHT22;7588;62.368;25.902;2023-05-07T09:15:46;12.70;51.20
14985;DHT22;7588;62.368;25.902;2023-05-07T09:18:14;12.60;47.20
14985;DHT22;7588;62.368;25.902;2023-05-07T09:20:40;12.20;52.60
14985;DHT22;7588;62.368;25.902;2023-05-07T09:23:07;12.50;51.20
14985;DHT22;7588;62.368;25.902;2023-05-07T09:25:34;13.00;48.10
14985;DHT22;7588;62.368;25.902;2023-05-07T09:28:01;13.40;50.10
14985;DHT22;7588;62.368;25.902;2023-05-07T09:30:31;14.20;47.80
14985;DHT22;7588;62.368;25.902;2023-05-07T09:33:02;14.70;48.20
14985;DHT22;7588;62.368;25.902;2023-05-07T09:35:28;14.30;44.40
14985;DHT22;7588;62.368;25.902;2023-05-07T09:37:58;13.80;47.50
14985;DHT22;7588;62.368;25.902;2023-05-07T09:40:26;13.50;43.10
14985;DHT22;7588;62.368;25.902;2023-05-07T09:42:53;13.60;43.50
14985;DHT22;7588;62.368;25.902;2023-05-07T09:45:26;13.80;45.10
14985;DHT22;7588;62.368;25.902;2023-05-07T09:47:55;14.20;44.50
14985;DHT22;7588;62.368;25.902;2023-05-07T09:50:29;14.30;42.30
14985;DHT22;7588;62.368;25.902;2023-05-07T09:52:56;13.80;43.70
14985;DHT22;7588;62.368;25.902;2023-05-07T09:55:23;13.50;44.40
14985;DHT22;7588;62.368;25.902;2023-05-07T09:57:51;13.70;45.20
14985;DHT22;7588;62.368;25.902;2023-05-07T10:00:19;14.00;43.80
14985;DHT22;7588;62.368;25.902;2023-05-07T10:02:52;14.20;41.80
14985;DHT22;7588;62.368;25.902;2023-05-07T10:05:21;13.90;43.00
14985;DHT22;7588;62.368;25.902;2023-05-07T10:07:48;14.10;47.80
14985;DHT22;7588;62.368;25.902;2023-05-07T10:10:14;14.30;45.40
14985;DHT22;7588;62.368;25.902;2023-05-07T10:12:41;13.60;44.20
14985;DHT22;7588;62.368;25.902;2023-05-07T10:15:08;13.90;43.80
14985;DHT22;7588;62.368;25.902;2023-05-07T10:17:38;14.10;46.50
14985;DHT22;7588;62.368;25.902;2023-05-07T10:20:05;14.40;40.70
14985;DHT22;7588;62.368;25.902;2023-05-07T10:22:40;14.80;40.80
14985;DHT22;7588;62.368;25.902;2023-05-07T10:25:21;15.70;41.70
14985;DHT22;7588;62.368;25.902;2023-05-07T10:27:48;16.00;42.70
14985;DHT22;7588;62.368;25.902;2023-05-07T10:33:10;15.50;43.50
14985;DHT22;7588;62.368;25.902;2023-05-07T10:35:42;15.30;41.60
14985;DHT22;7588;62.368;25.902;2023-05-07T10:38:08;15.30;42.20
14985;DHT22;7588;62.368;25.902;2023-05-07T10:40:35;14.80;42.00
14985;DHT22;7588;62.368;25.902;2023-05-07T10:43:02;15.50;44.40
14985;DHT22;7588;62.368;25.902;2023-05-07T10:45:30;16.10;44.50
14985;DHT22;7588;62.368;25.902;2023-05-07T10:48:12;16.70;40.20
14985;DHT22;7588;62.368;25.902;2023-05-07T10:50:39;16.90;39.70
14985;DHT22;7588;62.368;25.902;2023-05-07T10:58:30;16.30;42.00
14985;DHT22;7588;62.368;25.902;2023-05-07T11:01:01;15.60;41.30
14985;DHT22;7588;62.368;25.902;2023-05-07T11:03:27;15.90;42.40
14985;DHT22;7588;62.368;25.902;2023-05-07T11:06:10;16.70;46.10
14985;DHT22;7588;62.368;25.902;2023-05-07T11:11:17;16.90;41.40
14985;DHT22;7588;62.368;25.902;2023-05-07T11:13:49;16.80;41.10
14985;DHT22;7588;62.368;25.902;2023-05-07T11:16:19;17.10;39.60
14985;DHT22;7588;62.368;25.902;2023-05-07T11:18:56;16.40;43.70
14985;DHT22;7588;62.368;25.902;2023-05-07T11:21:38;15.60;41.50
14985;DHT22;7588;62.368;25.902;2023-05-07T11:24:05;15.90;42.00
14985;DHT22;7588;62.368;25.902;2023-05-07T11:26:50;15.60;42.00
14985;DHT22;7588;62.368;25.902;2023-05-07T11:29:17;15.80;42.70
14985;DHT22;7588;62.368;25.902;2023-05-07T11:31:43;16.40;40.40
14985;DHT22;7588;62.368;25.902;2023-05-07T11:34:09;16.70;42.00
14985;DHT22;7588;62.368;25.902;2023-05-07T11:36:41;16.70;39.20
14985;DHT22;7588;62.368;25.902;2023-05-07T11:39:28;17.30;39.40
14985;DHT22;7588;62.368;25.902;2023-05-07T11:41:55;18.00;38.10
14985;DHT22;7588;62.368;25.902;2023-05-07T11:44:21;18.20;38.20
14985;DHT22;7588;62.368;25.902;2023-05-07T11:46:46;18.60;41.50
14985;DHT22;7588;62.368;25.902;2023-05-07T11:49:12;19.00;44.50
14985;DHT22;7588;62.368;25.902;2023-05-07T11:51:39;18.20;37.70
14985;DHT22;7588;62.368;25.902;2023-05-07T11:54:05;17.50;42.50
14985;DHT22;7588;62.368;25.902;2023-05-07T11:56:34;17.30;40.50
14985;DHT22;7588;62.368;25.902;2023-05-07T11:59:00;16.70;44.30
14985;DHT22;7588;62.368;25.902;2023-05-07T12:01:26;15.60;43.90
14985;DHT22;7588;62.368;25.902;2023-05-07T12:03:52;15.90;42.80
14985;DHT22;7588;62.368;25.902;2023-05-07T12:06:18;16.40;43.90
14985;DHT22;7588;62.368;25.902;2023-05-07T12:08:45;17.30;44.50
14985;DHT22;7588;62.368;25.902;2023-05-07T12:11:14;18.20;39.20
14985;DHT22;7588;62.368;25.902;2023-05-07T12:13:41;18.80;41.40
14985;DHT22;7588;62.368;25.902;2023-05-07T12:16:07;19.00;37.20
14985;DHT22;7588;62.368;25.902;2023-05-07T12:18:34;18.60;38.80
14985;DHT22;7588;62.368;25.902;2023-05-07T12:21:01;17.60;41.00
14985;DHT22;7588;62.368;25.902;2023-05-07T12:23:27;16.50;41.10
14985;DHT22;7588;62.368;25.902;2023-05-07T12:25:53;15.40;43.70
14985;DHT22;7588;62.368;25.902;2023-05-07T12:28:19;15.20;42.00
14985;DHT22;7588;62.368;25.902;2023-05-07T12:30:48;15.70;44.80
14985;DHT22;7588;62.368;25.902;2023-05-07T12:33:23;16.60;44.60
14985;DHT22;7588;62.368;25.902;2023-05-07T12:35:48;17.70;44.30
14985;DHT22;7588;62.368;25.902;2023-05-07T12:38:17;18.40;39.80
14985;DHT22;7588;62.368;25.902;2023-05-07T12:40:50;19.30;39.70
14985;DHT22;7588;62.368;25.902;2023-05-07T12:43:24;19.40;38.20
14985;DHT22;7588;62.368;25.902;2023-05-07T12:45:51;18.70;40.40
14985;DHT22;7588;62.368;25.902;2023-05-07T12:48:19;18.00;39.00
14985;DHT22;7588;62.368;25.902;2023-05-07T12:50:55;17.10;41.20
14985;DHT22;7588;62.368;25.902;2023-05-07T12:53:22;16.40;41.70
14985;DHT22;7588;62.368;25.902;2023-05-07T12:55:51;16.00;40.20
14985;DHT22;7588;62.368;25.902;2023-05-07T12:58:19;15.70;39.90
14985;DHT22;7588;62.368;25.902;2023-05-07T13:00:48;15.40;41.40
14985;DHT22;7588;62.368;25.902;2023-05-07T13:03:25;14.80;43.90
14985;DHT22;7588;62.368;25.902;2023-05-07T13:05:52;15.20;44.50
14985;DHT22;7588;62.368;25.902;2023-05-07T13:08:25;15.10;43.20
14985;DHT22;7588;62.368;25.902;2023-05-07T13:10:51;15.10;41.60
14985;DHT22;7588;62.368;25.902;2023-05-07T13:13:19;14.90;43.40
14985;DHT22;7588;62.368;25.902;2023-05-07T13:15:45;14.50;47.00
14985;DHT22;7588;62.368;25.902;2023-05-07T13:18:11;14.10;46.20
14985;DHT22;7588;62.368;25.902;2023-05-07T13:20:37;13.70;44.10
14985;DHT22;7588;62.368;25.902;2023-05-07T13:23:03;13.50;46.60
14985;DHT22;7588;62.368;25.902;2023-05-07T13:25:30;13.50;46.80
14985;DHT22;7588;62.368;25.902;2023-05-07T13:27:59;13.80;45.40
14985;DHT22;7588;62.368;25.902;2023-05-07T13:30:25;14.00;43.70
14985;DHT22;7588;62.368;25.902;2023-05-07T13:32:53;14.00;46.50
14985;DHT22;7588;62.368;25.902;2023-05-07T13:35:20;14.40;45.10
14985;DHT22;7588;62.368;25.902;2023-05-07T13:37:46;14.70;45.40
14985;DHT22;7588;62.368;25.902;2023-05-07T13:40:13;14.70;46.50
14985;DHT22;7588;62.368;25.902;2023-05-07T13:42:39;14.60;46.60
14985;DHT22;7588;62.368;25.902;2023-05-07T13:45:05;14.20;43.50
14985;DHT22;7588;62.368;25.902;2023-05-07T13:47:31;13.90;45.30
14985;DHT22;7588;62.368;25.902;2023-05-07T13:49:57;13.80;45.00
14985;DHT22;7588;62.368;25.902;2023-05-07T13:52:22;13.80;45.00
14985;DHT22;7588;62.368;25.902;2023-05-07T13:54:48;13.60;45.60
14985;DHT22;7588;62.368;25.902;2023-05-07T13:57:14;13.30;47.90
14985;DHT22;7588;62.368;25.902;2023-05-07T13:59:40;13.10;48.90
14985;DHT22;7588;62.368;25.902;2023-05-07T14:02:06;12.80;47.20
14985;DHT22;7588;62.368;25.902;2023-05-07T14:04:32;12.80;48.00
14985;DHT22;7588;62.368;25.902;2023-05-07T14:06:58;12.70;48.80
14985;DHT22;7588;62.368;25.902;2023-05-07T14:09:23;12.70;48.80
14985;DHT22;7588;62.368;25.902;2023-05-07T14:11:49;12.60;48.20
14985;DHT22;7588;62.368;25.902;2023-05-07T14:14:17;12.60;50.00
14985;DHT22;7588;62.368;25.902;2023-05-07T14:16:43;12.60;51.90
14985;DHT22;7588;62.368;25.902;2023-05-07T14:19:09;12.70;49.90
14985;DHT22;7588;62.368;25.902;2023-05-07T14:21:35;12.70;46.60
14985;DHT22;7588;62.368;25.902;2023-05-07T14:24:01;12.90;46.30
14985;DHT22;7588;62.368;25.902;2023-05-07T14:26:26;12.90;49.00
14985;DHT22;7588;62.368;25.902;2023-05-07T14:28:52;13.00;50.00
14985;DHT22;7588;62.368;25.902;2023-05-07T14:31:20;13.00;49.10
14985;DHT22;7588;62.368;25.902;2023-05-07T14:33:46;13.10;49.30
14985;DHT22;7588;62.368;25.902;2023-05-07T14:36:12;13.20;46.00
14985;DHT22;7588;62.368;25.902;2023-05-07T14:38:37;13.30;47.20
14985;DHT22;7588;62.368;25.902;2023-05-07T14:41:03;13.20;47.80
14985;DHT22;7588;62.368;25.902;2023-05-07T14:43:29;13.30;47.00
14985;DHT22;7588;62.368;25.902;2023-05-07T14:45:55;13.30;47.00
14985;DHT22;7588;62.368;25.902;2023-05-07T14:48:20;13.20;48.10
14985;DHT22;7588;62.368;25.902;2023-05-07T14:50:49;13.00;48.30
14985;DHT22;7588;62.368;25.902;2023-05-07T14:53:15;12.80;49.30
14985;DHT22;7588;62.368;25.902;2023-05-07T14:55:41;12.60;51.30
14985;DHT22;7588;62.368;25.902;2023-05-07T14:58:07;12.50;51.40
14985;DHT22;7588;62.368;25.902;2023-05-07T15:00:33;12.40;50.40
14985;DHT22;7588;62.368;25.902;2023-05-07T15:03:05;12.30;52.00
14985;DHT22;7588;62.368;25.902;2023-05-07T15:05:32;12.30;52.20
14985;DHT22;7588;62.368;25.902;2023-05-07T15:07:58;12.10;54.80
14985;DHT22;7588;62.368;25.902;2023-05-07T15:10:24;12.00;54.00
14985;DHT22;7588;62.368;25.902;2023-05-07T15:12:49;12.00;55.60
14985;DHT22;7588;62.368;25.902;2023-05-07T15:15:15;11.90;55.60
14985;DHT22;7588;62.368;25.902;2023-05-07T15:17:41;11.90;55.60
14985;DHT22;7588;62.368;25.902;2023-05-07T15:20:07;11.90;56.70
14985;DHT22;7588;62.368;25.902;2023-05-07T15:22:33;12.00;55.60
14985;DHT22;7588;62.368;25.902;2023-05-07T15:24:59;12.10;54.90
14985;DHT22;7588;62.368;25.902;2023-05-07T15:27:25;12.10;55.70
14985;DHT22;7588;62.368;25.902;2023-05-07T15:29:51;12.10;55.70
14985;DHT22;7588;62.368;25.902;2023-05-07T15:32:17;12.00;55.40
14985;DHT22;7588;62.368;25.902;2023-05-07T15:34:43;12.00;54.60
14985;DHT22;7588;62.368;25.902;2023-05-07T15:37:08;12.00;55.70
14985;DHT22;7588;62.368;25.902;2023-05-07T15:39:34;12.10;54.40
14985;DHT22;7588;62.368;25.902;2023-05-07T15:42:00;12.20;54.90